Stateline, Nevada
Current Conditions -  °F | °C
As of 11:53 AM on Monday 26 Jan 2015 (Local Time) from KTVL Reporting Station
Clear Clear  
Wind Chill: 56°   Ceiling: Unl
Heat Index: 56°   Visibility: 10mi
Dew Point: 26°   Wind: 7mph
Humidity: 32%   Direction: NA
Pressure: 30.17"   Gusts: NA
Location:  38.97°N, 119.94°W
Report Text: KTVL 261953Z AUTO VRB06KT 10SM CLR 13/M03 A3017 RMK AO2 SLP195 T01331033
Loading
Personal Weather Stations






























Interactive Weather Map New forecast layout! Learn more

10-Day Weather Forecast

Advertisements
Track Severe Weather on mobile